createdAt,value
2022-12-08T00:01:31.175Z,-4.06
2022-12-08T00:04:00.856Z,-4.05
2022-12-08T00:06:54.091Z,-4.00
2022-12-08T00:09:39.144Z,-4.01
2022-12-08T00:12:11.970Z,-4.14
2022-12-08T00:14:45.445Z,-4.09
2022-12-08T00:17:15.582Z,-4.03
2022-12-08T00:19:44.170Z,-4.09
2022-12-08T00:22:12.813Z,-4.17
2022-12-08T00:24:41.391Z,-4.18
2022-12-08T00:27:10.652Z,-4.10
2022-12-08T00:29:38.969Z,-4.06
2022-12-08T00:32:07.095Z,-4.03
2022-12-08T00:34:35.245Z,-4.09
2022-12-08T00:37:03.380Z,-4.15
2022-12-08T00:39:30.895Z,-4.15
2022-12-08T00:42:13.518Z,-4.22
2022-12-08T00:44:42.484Z,-4.12
2022-12-08T00:47:10.165Z,-4.21
2022-12-08T00:49:37.497Z,-4.15
2022-12-08T00:52:05.520Z,-4.10
2022-12-08T00:54:32.980Z,-4.17
2022-12-08T00:57:00.698Z,-4.18
2022-12-08T00:59:28.486Z,-4.08
2022-12-08T01:01:56.254Z,-4.01
2022-12-08T01:04:24.207Z,-3.95
2022-12-08T01:06:52.085Z,-4.06
2022-12-08T01:09:19.922Z,-4.16
2022-12-08T01:11:48.667Z,-4.19
2022-12-08T01:14:16.354Z,-4.12
2022-12-08T01:16:44.193Z,-4.09
2022-12-08T01:19:13.743Z,-4.04
2022-12-08T01:21:42.623Z,-4.06
2022-12-08T01:24:14.947Z,-4.17
2022-12-08T01:26:42.718Z,-4.11
2022-12-08T01:29:11.264Z,-4.14
2022-12-08T01:31:39.680Z,-4.19
2022-12-08T01:34:08.743Z,-4.14
2022-12-08T01:36:37.560Z,-4.15
2022-12-08T01:39:19.642Z,-4.11
2022-12-08T01:41:47.847Z,-4.12
2022-12-08T01:44:15.198Z,-4.13
2022-12-08T01:46:47.346Z,-4.10
2022-12-08T01:49:27.038Z,-4.14
2022-12-08T01:52:03.042Z,-4.19
2022-12-08T01:54:36.873Z,-4.09
2022-12-08T01:57:20.746Z,-4.10
2022-12-08T01:59:54.784Z,-4.13
2022-12-08T02:02:24.200Z,-4.11
2022-12-08T02:04:51.748Z,-4.13
2022-12-08T02:07:20.488Z,-4.20
2022-12-08T02:09:48.119Z,-4.15
2022-12-08T02:12:15.878Z,-4.16
2022-12-08T02:14:43.451Z,-4.14
2022-12-08T02:17:51.121Z,-4.08
2022-12-08T02:20:27.293Z,-4.12
2022-12-08T02:22:59.919Z,-4.15
2022-12-08T02:25:35.550Z,-4.09
2022-12-08T02:28:32.154Z,-4.03
2022-12-08T02:31:11.507Z,-4.05
2022-12-08T02:34:04.401Z,-4.11
2022-12-08T02:36:47.049Z,-4.21
2022-12-08T02:39:36.224Z,-4.11
2022-12-08T02:42:31.622Z,-4.14
2022-12-08T02:45:26.128Z,-4.14
2022-12-08T02:47:54.119Z,-4.19
2022-12-08T02:50:21.653Z,-4.26
2022-12-08T02:52:49.198Z,-4.22
2022-12-08T02:55:28.269Z,-4.22
2022-12-08T02:58:07.853Z,-4.17
2022-12-08T03:01:01.969Z,-4.13
2022-12-08T03:03:43.990Z,-4.09
2022-12-08T03:06:23.834Z,-4.19
2022-12-08T03:09:06.161Z,-4.20
2022-12-08T03:11:42.620Z,-4.17
2022-12-08T03:14:14.586Z,-4.19
2022-12-08T03:16:45.763Z,-4.16
2022-12-08T03:19:20.108Z,-4.17
2022-12-08T03:21:51.862Z,-4.16
2022-12-08T03:24:23.150Z,-4.16
2022-12-08T03:26:57.126Z,-4.16
2022-12-08T03:29:24.993Z,-4.06
2022-12-08T03:31:57.613Z,-4.04
2022-12-08T03:34:29.943Z,-4.11
2022-12-08T03:37:00.150Z,-4.16
2022-12-08T03:39:27.663Z,-4.14
2022-12-08T03:41:55.277Z,-4.12
2022-12-08T03:44:23.001Z,-4.14
2022-12-08T03:46:50.685Z,-4.16
2022-12-08T03:49:18.077Z,-4.11
2022-12-08T03:51:45.581Z,-4.21
2022-12-08T03:54:13.114Z,-4.26
2022-12-08T03:56:40.611Z,-4.24
2022-12-08T03:59:08.989Z,-4.18
2022-12-08T04:01:36.708Z,-4.19
2022-12-08T04:04:04.552Z,-4.15
2022-12-08T04:06:31.925Z,-4.16
2022-12-08T04:08:59.775Z,-4.10
2022-12-08T04:11:27.347Z,-4.19
2022-12-08T04:13:55.129Z,-4.15
2022-12-08T04:16:25.332Z,-4.16
2022-12-08T04:18:53.374Z,-4.16
2022-12-08T04:21:21.745Z,-4.22
2022-12-08T04:23:49.451Z,-4.26
2022-12-08T04:26:17.050Z,-4.24
2022-12-08T04:28:45.010Z,-4.19
2022-12-08T04:31:12.608Z,-4.20
2022-12-08T04:33:40.195Z,-4.21
2022-12-08T04:36:08.252Z,-4.18
2022-12-08T04:38:36.005Z,-4.22
2022-12-08T04:41:04.138Z,-4.22
2022-12-08T04:43:31.592Z,-4.21
2022-12-08T04:45:59.361Z,-4.22
2022-12-08T04:48:27.198Z,-4.23
2022-12-08T04:50:54.748Z,-4.17
2022-12-08T04:53:22.804Z,-4.14
2022-12-08T04:55:50.573Z,-4.19
2022-12-08T04:58:20.291Z,-4.14
2022-12-08T05:00:48.814Z,-4.18
2022-12-08T05:03:17.040Z,-4.06
2022-12-08T05:05:44.788Z,-4.07
2022-12-08T05:08:12.733Z,-4.08
2022-12-08T05:10:40.588Z,-4.07
2022-12-08T05:13:08.359Z,-3.96
2022-12-08T05:15:35.900Z,-4.03
2022-12-08T05:18:06.371Z,-4.03
2022-12-08T05:20:35.023Z,-4.02
2022-12-08T05:23:02.776Z,-4.03
2022-12-08T05:25:30.213Z,-4.06
2022-12-08T05:28:17.656Z,-4.06
2022-12-08T05:30:45.341Z,-3.99
2022-12-08T05:33:13.063Z,-3.92
2022-12-08T05:35:40.546Z,-3.89
2022-12-08T05:38:08.088Z,-3.92
2022-12-08T05:40:38.829Z,-3.95
2022-12-08T05:43:06.703Z,-3.91
2022-12-08T05:45:34.516Z,-3.93
2022-12-08T05:48:02.385Z,-3.92
2022-12-08T05:50:30.089Z,-3.89
2022-12-08T05:52:57.609Z,-3.88
2022-12-08T05:55:25.039Z,-3.88
2022-12-08T05:57:52.668Z,-3.91
2022-12-08T06:00:20.947Z,-3.86
2022-12-08T06:02:48.616Z,-3.80
2022-12-08T06:05:16.257Z,-3.78
2022-12-08T06:07:43.877Z,-3.73
2022-12-08T06:10:12.011Z,-3.78
2022-12-08T06:12:40.452Z,-3.79
2022-12-08T06:15:08.239Z,-3.76
2022-12-08T06:17:35.954Z,-3.78
2022-12-08T06:20:04.044Z,-3.83
2022-12-08T06:22:31.943Z,-3.77
2022-12-08T06:24:59.465Z,-3.71
2022-12-08T06:27:27.233Z,-3.69
2022-12-08T06:29:55.042Z,-3.72
2022-12-08T06:32:27.258Z,-3.74
2022-12-08T06:34:55.163Z,-3.71
2022-12-08T06:37:22.589Z,-3.70
2022-12-08T06:39:50.122Z,-3.68
2022-12-08T06:42:36.361Z,-3.62
2022-12-08T06:45:04.212Z,-3.60
2022-12-08T06:47:31.654Z,-3.64
2022-12-08T06:49:59.733Z,-3.64
2022-12-08T06:52:27.237Z,-3.63
2022-12-08T06:54:54.730Z,-3.56
2022-12-08T06:57:24.073Z,-3.60
2022-12-08T06:59:51.914Z,-3.60
2022-12-08T07:02:19.805Z,-3.53
2022-12-08T07:04:47.604Z,-3.55
2022-12-08T07:07:15.406Z,-3.54
2022-12-08T07:09:43.121Z,-3.50
2022-12-08T07:12:10.564Z,-3.49
2022-12-08T07:14:38.236Z,-3.44
2022-12-08T07:17:06.047Z,-3.44
2022-12-08T07:19:33.876Z,-3.39
2022-12-08T07:22:01.585Z,-3.41
2022-12-08T07:24:29.064Z,-3.40
2022-12-08T07:26:56.564Z,-3.36
2022-12-08T07:29:26.367Z,-3.36
2022-12-08T07:31:54.114Z,-3.35
2022-12-08T07:34:21.749Z,-3.31
2022-12-08T07:36:49.268Z,-3.36
2022-12-08T07:39:17.157Z,-3.37
2022-12-08T07:41:44.583Z,-3.31
2022-12-08T07:44:12.795Z,-3.34
2022-12-08T07:46:40.485Z,-3.31
2022-12-08T07:49:08.205Z,-3.27
2022-12-08T07:51:35.747Z,-3.28
2022-12-08T07:54:03.284Z,-3.22
2022-12-08T07:56:30.783Z,-3.20
2022-12-08T07:58:58.388Z,-3.19
2022-12-08T08:01:30.486Z,-3.19
2022-12-08T08:04:04.451Z,-3.21
2022-12-08T08:06:33.818Z,-3.20
2022-12-08T08:09:01.638Z,-3.21
2022-12-08T08:11:29.507Z,-3.19
2022-12-08T08:13:57.620Z,-3.19
2022-12-08T08:16:25.501Z,-3.16
2022-12-08T08:18:53.698Z,-3.19
2022-12-08T08:21:45.143Z,-3.16
2022-12-08T08:24:09.768Z,-3.12
2022-12-08T08:26:37.847Z,-3.10
2022-12-08T08:29:05.602Z,-3.07
2022-12-08T08:31:33.337Z,-3.05
2022-12-08T08:34:06.073Z,-3.00
2022-12-08T08:36:34.184Z,-2.98
2022-12-08T08:39:02.375Z,-2.97
2022-12-08T08:41:29.894Z,-2.95
2022-12-08T08:43:57.458Z,-2.96
2022-12-08T08:46:25.272Z,-2.95
2022-12-08T08:48:52.934Z,-2.93
2022-12-08T08:51:21.256Z,-2.91
2022-12-08T08:53:48.820Z,-2.86
2022-12-08T08:56:21.844Z,-2.81
2022-12-08T08:58:50.426Z,-2.81
2022-12-08T09:01:21.249Z,-2.80
2022-12-08T09:03:49.878Z,-2.81
2022-12-08T09:06:17.897Z,-2.76
2022-12-08T09:08:46.307Z,-2.73
2022-12-08T09:11:14.850Z,-2.73
2022-12-08T09:13:42.610Z,-2.73
2022-12-08T09:16:12.095Z,-2.72
2022-12-08T09:18:40.053Z,-2.71
2022-12-08T09:21:11.586Z,-2.67
2022-12-08T09:23:40.134Z,-2.64
2022-12-08T09:26:08.355Z,-2.63
2022-12-08T09:28:37.573Z,-2.60
2022-12-08T09:31:05.481Z,-2.58
2022-12-08T09:33:32.980Z,-2.53
2022-12-08T09:36:04.339Z,-2.56
2022-12-08T09:38:32.621Z,-2.52
2022-12-08T09:41:02.348Z,-2.51
2022-12-08T09:43:46.039Z,-2.49
2022-12-08T09:46:17.621Z,-2.44
2022-12-08T09:48:57.352Z,-2.40
2022-12-08T09:51:36.012Z,-2.39
2022-12-08T09:54:09.984Z,-2.36
2022-12-08T09:56:37.773Z,-2.42
2022-12-08T09:59:08.539Z,-2.44
2022-12-08T10:01:41.746Z,-2.43
2022-12-08T10:04:26.736Z,-2.42
2022-12-08T10:06:56.953Z,-2.41
2022-12-08T10:09:40.416Z,-2.40
2022-12-08T10:12:08.169Z,-2.42
2022-12-08T10:14:43.349Z,-2.38
2022-12-08T10:17:28.652Z,-2.36
2022-12-08T10:20:12.307Z,-2.30
2022-12-08T10:22:44.577Z,-2.28
2022-12-08T10:25:18.420Z,-2.28
2022-12-08T10:27:53.272Z,-2.28
2022-12-08T10:30:22.636Z,-2.28
2022-12-08T10:32:52.164Z,-2.26
2022-12-08T10:35:22.046Z,-2.24
2022-12-08T10:38:01.713Z,-2.25
2022-12-08T10:40:40.596Z,-2.14
2022-12-08T10:43:20.886Z,-2.15
2022-12-08T10:45:48.672Z,-2.09
2022-12-08T10:48:30.672Z,-2.07
2022-12-08T10:50:59.778Z,-2.05
2022-12-08T10:53:31.776Z,-2.06
2022-12-08T10:56:02.266Z,-2.06
2022-12-08T10:58:31.416Z,-2.05
2022-12-08T11:01:04.944Z,-2.12
2022-12-08T11:03:44.675Z,-2.08
2022-12-08T11:06:17.714Z,-2.03
2022-12-08T11:08:49.070Z,-2.00
2022-12-08T11:11:17.632Z,-2.02
2022-12-08T11:13:45.232Z,-2.01
2022-12-08T11:16:15.986Z,-2.02
2022-12-08T11:18:55.219Z,-2.05
2022-12-08T11:21:37.808Z,-2.05
2022-12-08T11:24:14.313Z,-2.07
2022-12-08T11:26:58.122Z,-2.09
2022-12-08T11:29:28.028Z,-2.10
2022-12-08T11:32:12.401Z,-2.11
2022-12-08T11:34:55.436Z,-2.09
2022-12-08T11:37:34.732Z,-2.12
2022-12-08T11:40:21.733Z,-2.13
2022-12-08T11:42:58.434Z,-2.12
2022-12-08T11:45:33.153Z,-2.14
2022-12-08T11:48:15.954Z,-2.17
2022-12-08T11:50:47.570Z,-2.17
2022-12-08T11:53:23.507Z,-2.15
2022-12-08T11:55:57.582Z,-2.16
2022-12-08T11:58:34.855Z,-2.15
2022-12-08T12:01:02.975Z,-2.16
2022-12-08T12:03:47.295Z,-2.16
2022-12-08T12:06:54.893Z,-2.13
2022-12-08T12:09:31.996Z,-2.11
2022-12-08T12:12:15.907Z,-2.12
2022-12-08T12:14:46.291Z,-2.10
2022-12-08T12:17:35.223Z,-2.10
2022-12-08T12:20:12.124Z,-2.12
2022-12-08T12:22:40.669Z,-2.10
2022-12-08T12:25:18.030Z,-2.12
2022-12-08T12:27:46.605Z,-2.12
2022-12-08T12:30:53.933Z,-2.10
2022-12-08T12:33:23.184Z,-2.08
2022-12-08T12:35:51.232Z,-2.09
2022-12-08T12:38:46.032Z,-2.09
2022-12-08T12:41:16.942Z,-2.07
2022-12-08T12:44:12.379Z,-2.10
2022-12-08T12:46:54.071Z,-2.11
2022-12-08T12:49:39.728Z,-2.08
2022-12-08T12:52:10.479Z,-2.13
2022-12-08T12:54:43.552Z,-2.14
2022-12-08T12:57:11.268Z,-2.14
2022-12-08T13:00:08.385Z,-2.13
2022-12-08T13:02:36.463Z,-2.14
2022-12-08T13:05:18.017Z,-2.15
2022-12-08T13:07:48.574Z,-2.15
2022-12-08T13:10:16.260Z,-2.16
2022-12-08T13:12:45.946Z,-2.15
2022-12-08T13:15:19.910Z,-2.19
2022-12-08T13:17:49.138Z,-2.20
2022-12-08T13:20:24.990Z,-2.16
2022-12-08T13:23:13.423Z,-2.16
2022-12-08T13:25:40.812Z,-2.14
2022-12-08T13:28:21.007Z,-2.05
2022-12-08T13:30:50.900Z,-2.12
2022-12-08T13:33:22.221Z,-2.09
2022-12-08T13:36:28.217Z,-2.11
2022-12-08T13:38:58.807Z,-2.09
2022-12-08T13:41:43.492Z,-2.03
2022-12-08T13:47:33.709Z,-2.07
2022-12-08T13:54:35.482Z,-2.09
2022-12-08T13:58:48.217Z,-2.13
2022-12-08T14:01:24.348Z,-2.13
2022-12-08T14:06:58.340Z,-2.11
2022-12-08T14:09:32.558Z,-2.08
2022-12-08T14:12:17.805Z,-2.06
2022-12-08T14:15:04.914Z,-2.06
2022-12-08T14:17:33.766Z,-2.06
2022-12-08T14:20:03.195Z,-2.10
2022-12-08T14:22:39.286Z,-2.14
2022-12-08T14:25:14.068Z,-2.16
2022-12-08T14:27:42.470Z,-2.14
2022-12-08T14:30:16.123Z,-2.15
2022-12-08T14:32:48.344Z,-2.19
2022-12-08T14:35:22.553Z,-2.13
2022-12-08T14:37:54.688Z,-2.10
2022-12-08T14:40:28.763Z,-2.01
2022-12-08T14:43:08.726Z,-2.01
2022-12-08T14:45:39.166Z,-2.05
2022-12-08T14:48:31.477Z,-2.07
2022-12-08T14:51:07.394Z,-2.07
2022-12-08T14:53:41.907Z,-2.10
2022-12-08T14:56:36.163Z,-2.13
2022-12-08T14:59:12.158Z,-2.12
2022-12-08T15:01:40.503Z,-2.14
2022-12-08T15:04:13.530Z,-2.11
2022-12-08T15:06:54.352Z,-2.08
2022-12-08T15:10:10.446Z,-2.08
2022-12-08T15:12:38.078Z,-2.06
2022-12-08T15:15:08.486Z,-2.10
2022-12-08T15:17:49.059Z,-2.10
2022-12-08T15:20:39.133Z,-2.10
2022-12-08T15:23:21.439Z,-2.11
2022-12-08T15:25:49.965Z,-2.09
2022-12-08T15:28:23.979Z,-2.07
2022-12-08T15:30:55.209Z,-1.96
2022-12-08T15:33:22.996Z,-1.95
2022-12-08T15:35:51.385Z,-1.98
2022-12-08T15:38:26.703Z,-1.98
2022-12-08T15:40:55.009Z,-2.01
2022-12-08T15:43:23.303Z,-2.00
2022-12-08T15:45:59.208Z,-2.00
2022-12-08T15:48:30.199Z,-1.99
2022-12-08T15:50:58.867Z,-1.97
2022-12-08T15:53:26.378Z,-1.94
2022-12-08T15:58:58.804Z,-1.95
2022-12-08T16:01:27.232Z,-1.96
2022-12-08T16:09:38.841Z,-1.97
2022-12-08T16:13:40.463Z,-1.90
2022-12-08T16:18:25.129Z,-2.02
2022-12-08T16:23:44.169Z,-1.95
2022-12-08T16:29:06.611Z,-1.99
2022-12-08T16:31:34.976Z,-2.00
2022-12-08T16:34:02.552Z,-1.97
2022-12-08T16:36:30.264Z,-1.96
2022-12-08T16:38:57.912Z,-1.95
2022-12-08T16:41:43.912Z,-1.97
2022-12-08T16:44:11.411Z,-1.94
2022-12-08T16:46:39.228Z,-1.96
2022-12-08T16:49:09.056Z,-1.99
2022-12-08T16:51:36.717Z,-2.06
2022-12-08T16:54:04.486Z,-2.07
2022-12-08T16:56:33.528Z,-2.02
2022-12-08T16:59:02.470Z,-2.04
2022-12-08T17:01:30.538Z,-2.05
2022-12-08T17:04:29.731Z,-2.04
2022-12-08T17:06:46.812Z,-2.07
2022-12-08T17:09:14.658Z,-2.06
2022-12-08T17:11:43.705Z,-2.07
2022-12-08T17:14:12.525Z,-2.04
2022-12-08T17:16:40.661Z,-2.05
2022-12-08T17:19:08.752Z,-2.03
2022-12-08T17:21:36.439Z,-1.93
2022-12-08T17:24:04.475Z,-1.93
2022-12-08T17:26:32.373Z,-1.95
2022-12-08T17:29:02.391Z,-1.95
2022-12-08T17:31:32.161Z,-1.93
2022-12-08T17:34:03.039Z,-1.88
2022-12-08T17:36:31.313Z,-1.91
2022-12-08T17:39:00.467Z,-1.93
2022-12-08T17:41:29.099Z,-1.91
2022-12-08T17:43:57.036Z,-1.94
2022-12-08T17:46:24.735Z,-1.93
2022-12-08T17:48:52.655Z,-1.98
2022-12-08T17:51:20.969Z,-2.01
2022-12-08T17:53:48.692Z,-2.00
2022-12-08T17:56:19.617Z,-2.02
2022-12-08T17:58:54.032Z,-2.09
2022-12-08T18:01:23.610Z,-2.02
2022-12-08T18:03:51.837Z,-2.02
2022-12-08T18:06:19.717Z,-2.03
2022-12-08T18:08:47.734Z,-2.02
2022-12-08T18:11:18.425Z,-1.98
2022-12-08T18:13:47.626Z,-1.95
2022-12-08T18:16:15.971Z,-1.94
2022-12-08T18:18:43.694Z,-1.98
2022-12-08T18:21:11.829Z,-1.92
2022-12-08T18:23:42.263Z,-1.87
2022-12-08T18:26:13.766Z,-1.85
2022-12-08T18:28:42.095Z,-1.80
2022-12-08T18:31:15.944Z,-1.80
2022-12-08T18:33:45.077Z,-1.80
2022-12-08T18:36:14.261Z,-1.80
2022-12-08T18:38:41.782Z,-1.79
2022-12-08T18:41:12.182Z,-1.80
2022-12-08T18:43:40.616Z,-1.76
2022-12-08T18:46:11.016Z,-1.79
2022-12-08T18:48:46.216Z,-1.76
2022-12-08T18:51:16.556Z,-1.74
2022-12-08T18:53:45.401Z,-1.74
2022-12-08T18:56:26.293Z,-1.83
2022-12-08T18:59:01.295Z,-1.87
2022-12-08T19:01:33.205Z,-1.90
2022-12-08T19:04:27.868Z,-1.90
2022-12-08T19:06:53.431Z,-1.88
2022-12-08T19:09:22.405Z,-1.91
2022-12-08T19:11:50.280Z,-1.96
2022-12-08T19:14:22.570Z,-2.03
2022-12-08T19:16:53.732Z,-2.12
2022-12-08T19:19:21.649Z,-2.17
2022-12-08T19:21:49.598Z,-2.25
2022-12-08T19:24:17.704Z,-2.28
2022-12-08T19:26:45.736Z,-2.29
2022-12-08T19:29:13.948Z,-2.36
2022-12-08T19:31:41.905Z,-2.35
2022-12-08T19:34:11.965Z,-2.47
2022-12-08T19:36:42.733Z,-2.48
2022-12-08T19:39:33.720Z,-2.52
2022-12-08T19:42:20.550Z,-2.54
2022-12-08T19:44:54.462Z,-2.57
2022-12-08T19:47:24.848Z,-2.62
2022-12-08T19:50:17.095Z,-2.55
2022-12-08T19:52:45.485Z,-2.57
2022-12-08T19:55:13.514Z,-2.50
2022-12-08T19:57:41.571Z,-2.54
2022-12-08T20:00:11.111Z,-2.53
2022-12-08T20:02:39.388Z,-2.53
2022-12-08T20:05:08.468Z,-2.50
2022-12-08T20:07:36.444Z,-2.47
2022-12-08T20:10:06.808Z,-2.51
2022-12-08T20:12:34.516Z,-2.54
2022-12-08T20:15:02.642Z,-2.56
2022-12-08T20:17:30.715Z,-2.57
2022-12-08T20:20:02.587Z,-2.62
2022-12-08T20:22:34.518Z,-2.62
2022-12-08T20:25:03.096Z,-2.62
2022-12-08T20:27:31.027Z,-2.64
2022-12-08T20:29:59.137Z,-2.66
2022-12-08T20:32:27.101Z,-2.64
2022-12-08T20:34:55.404Z,-2.69
2022-12-08T20:37:22.988Z,-2.71
2022-12-08T20:39:52.367Z,-2.74
2022-12-08T20:42:20.480Z,-2.74
2022-12-08T20:44:48.588Z,-2.79
2022-12-08T20:47:17.445Z,-2.84
2022-12-08T20:49:47.136Z,-2.93
2022-12-08T20:52:15.847Z,-3.00
2022-12-08T20:54:43.697Z,-3.06
2022-12-08T20:57:11.711Z,-3.13
2022-12-08T20:59:39.704Z,-3.20
2022-12-08T21:02:07.613Z,-3.24
2022-12-08T21:04:35.637Z,-3.22
2022-12-08T21:07:03.759Z,-3.24
2022-12-08T21:09:31.504Z,-3.27
2022-12-08T21:11:59.216Z,-3.31
2022-12-08T21:14:26.953Z,-3.32
2022-12-08T21:16:55.645Z,-3.36
2022-12-08T21:19:26.044Z,-3.44
2022-12-08T21:21:53.819Z,-3.44
2022-12-08T21:24:21.920Z,-3.45
2022-12-08T21:26:50.153Z,-3.45
2022-12-08T21:29:18.036Z,-3.53
2022-12-08T21:31:45.950Z,-3.55
2022-12-08T21:34:14.065Z,-3.58
2022-12-08T21:36:41.763Z,-3.50
2022-12-08T21:39:12.833Z,-3.51
2022-12-08T21:41:59.607Z,-3.61
2022-12-08T21:44:27.506Z,-3.69
2022-12-08T21:46:55.169Z,-3.68
2022-12-08T21:49:23.254Z,-3.65
2022-12-08T21:51:51.332Z,-3.75
2022-12-08T21:54:19.635Z,-3.77
2022-12-08T21:56:48.800Z,-3.71
2022-12-08T21:59:17.819Z,-3.76
2022-12-08T22:01:46.022Z,-3.73
2022-12-08T22:04:18.178Z,-3.76
2022-12-08T22:06:46.352Z,-3.76
2022-12-08T22:09:15.223Z,-3.79
2022-12-08T22:11:43.943Z,-3.80
2022-12-08T22:14:14.999Z,-3.79
2022-12-08T22:16:44.112Z,-3.78
2022-12-08T22:19:12.778Z,-3.84
2022-12-08T22:21:41.590Z,-3.92
2022-12-08T22:24:09.838Z,-3.88
2022-12-08T22:26:37.813Z,-4.00
2022-12-08T22:29:05.592Z,-4.03
2022-12-08T22:31:33.233Z,-4.01
2022-12-08T22:34:00.807Z,-3.98
2022-12-08T22:36:28.856Z,-4.02
2022-12-08T22:38:57.111Z,-4.06
2022-12-08T22:41:24.939Z,-4.05
2022-12-08T22:43:52.513Z,-4.06
2022-12-08T22:46:21.631Z,-4.11
2022-12-08T22:48:50.218Z,-4.08
2022-12-08T22:51:18.402Z,-4.03
2022-12-08T22:53:46.666Z,-4.05
2022-12-08T22:56:15.485Z,-4.11
2022-12-08T22:58:44.519Z,-4.09
2022-12-08T23:01:22.126Z,-4.11
2022-12-08T23:03:49.710Z,-4.12
2022-12-08T23:06:17.500Z,-4.12
2022-12-08T23:08:45.897Z,-4.14
2022-12-08T23:11:14.011Z,-4.11
2022-12-08T23:13:42.260Z,-4.11
2022-12-08T23:16:11.700Z,-4.16
2022-12-08T23:18:44.918Z,-4.21
2022-12-08T23:21:18.955Z,-4.23
2022-12-08T23:23:46.878Z,-4.24
2022-12-08T23:26:26.760Z,-4.19
2022-12-08T23:28:56.381Z,-4.23
2022-12-08T23:31:24.865Z,-4.19
2022-12-08T23:33:53.379Z,-4.22
2022-12-08T23:36:22.581Z,-4.22
2022-12-08T23:38:49.949Z,-4.24
2022-12-08T23:41:17.799Z,-4.20
2022-12-08T23:43:47.903Z,-4.21
2022-12-08T23:46:17.277Z,-4.24
2022-12-08T23:48:45.538Z,-4.29
2022-12-08T23:51:14.035Z,-4.30
2022-12-08T23:53:41.700Z,-4.22
2022-12-08T23:56:12.210Z,-4.21
2022-12-08T23:58:41.641Z,-4.22
